MET'MAP v2.0
soon released !

Expected late october,
this new version will be
more efficient, smarter,
and hosted on a brand new
server x3 powerfull...
...and still free !


Not compatible ?
Try the mobile version !

LOG IN : | Subscribe | Disclaimer | Who is Orbifly ? |
ICAO code :

TAF - LDRI Rijeka - 25 May 2020 04:59 UTC
Data Sources :     NOAA   


- Airport Elevation : 278 ft
- IATA code : RJK
- No reported NOTAMs.


LDRI - Rijeka

Latest METAR recorded : 2015/08/11 08:00 LDRI 110800Z 27005KT CAVOK 29/14 Q1012
TAF TAF LDRI
Valid from the 25 at 00:00 until the 26 at 00:00 UTC


242325Z 2500/2600 06008KT 9999 FEW045 TX23/2513Z TN13/2503Z
PROB30
TEMPO 2512/2520 TSRA FEW040CB BKN045

Source NOAA


MET'MAP, your aeronautical weather chart ! - Copyright ORBIFLY December 2007

Programming & Development : Alexandra Zaïnal
Co-Developer : Marc-Olivier Méhu
Technical & hardware support : Manuel Goepfert
Concept & Financing : Baudouin d'Aumeries